Mississippi River (Missouri), New Madrid (07024175)

StateMissouriLatestUnknown (168000 cfs)
RiverMississippi RiverRatingObservedEstimated
Updated2022-09-25 22:00 (1 hour ago)Flood - The river is flooding. Obstacles can be treacherous or deadly. The river should be avoided at this stage for casual trips and definitely for the inexperienced. Trips should be attempted only with protective gear and equipment.Flood(none)(none)
Discharge168000 cfs (median: 409000 cfs)High - The river is high and potentially dangerous, especially for the young and / or inexperienced. Normal stream obstacles are sometimes difficult to navigate. Extended distances can be attempted, but canoe travel may not be advisable.High(none)(none)
Height0.33 feetGood - Conditions are ideal for a canoe or kayak. Boats typically will drag on fewer than one-quarter of riffles, if at all, and portages are unnecessary or rare. Normal float lengths can be attempted without a problem.Good(none)(none)
TrendSteady (rising over 24 hours)Low - River is low but can still be floated. Some riffles are okay but most come with significant dragging and might need a portage. Float lengths should be reduced to accommodate low flow, dragging, and portages.Low(none)(none)
USGSExternal icon USGS Site (External icon Duck Duck Go Maps)Poor - River is too low to float comfortably. Most or all riffles will drag or must be portaged and some obstacles (such as slick shelf rock) cause undue problems. Avoid the river at this stage for casual paddling trips.Poor(none)(none)

Trending Data

Plot Image

Trips for Mississippi River (Missouri), New Madrid (07024175)

DateStartEndDistanceConditionDischargeHeightFishingDetails

A total of 0 rows are displayed.

Condition Descriptions

Fishing Conditions

Fish Species

Notes

Classic Trip List

The classic River Trips application is still available for use. It is updated with the new system using a data retrofit. It is no longer maintained. The original River Trips application is no longer updated (as of 1 Dec 2016) but can be checked for errors or for the condition of the data before it was converted to the new system.

Gauge Data Table

ObservationHeightDischargeMaximum
Discharge
Minimum
Discharge
Mean
Discharge
P05P10P20P25P50
(Median)
P75P80P90P95
2022-09-25 22:00 0.33 168000 682000 (2018) 203000 (2017) 399000 213000 228000 409000 565000 635000
2022-09-25 21:00 0.30 168000 682000 (2018) 203000 (2017) 399000 213000 228000 409000 565000 635000
2022-09-25 20:00 0.27 167000 682000 (2018) 203000 (2017) 399000 213000 228000 409000 565000 635000
2022-09-25 19:00 0.25 167000 682000 (2018) 203000 (2017) 399000 213000 228000 409000 565000 635000
2022-09-25 18:00 0.21 167000 682000 (2018) 203000 (2017) 399000 213000 228000 409000 565000 635000
2022-09-25 17:00 0.10 165000 682000 (2018) 203000 (2017) 399000 213000 228000 409000 565000 635000
2022-09-25 16:00 0.06 164000 682000 (2018) 203000 (2017) 399000 213000 228000 409000 565000 635000
2022-09-25 15:00 0.01 164000 682000 (2018) 203000 (2017) 399000 213000 228000 409000 565000 635000
2022-09-25 14:00 0.02 164000 682000 (2018) 203000 (2017) 399000 213000 228000 409000 565000 635000
2022-09-25 13:00 -0.07 162000 682000 (2018) 203000 (2017) 399000 213000 228000 409000 565000 635000
2022-09-25 12:00 -0.13 162000 682000 (2018) 203000 (2017) 399000 213000 228000 409000 565000 635000
2022-09-25 11:00 -0.18 161000 682000 (2018) 203000 (2017) 399000 213000 228000 409000 565000 635000
2022-09-25 10:00 -0.31 159000 682000 (2018) 203000 (2017) 399000 213000 228000 409000 565000 635000
2022-09-25 09:00 -0.38 158000 682000 (2018) 203000 (2017) 399000 213000 228000 409000 565000 635000
2022-09-25 08:00 -0.50 156000 682000 (2018) 203000 (2017) 399000 213000 228000 409000 565000 635000
2022-09-25 07:00 -0.54 156000 682000 (2018) 203000 (2017) 399000 213000 228000 409000 565000 635000
2022-09-25 06:00 -0.65 154000 682000 (2018) 203000 (2017) 399000 213000 228000 409000 565000 635000
2022-09-25 05:00 -0.71 153000 682000 (2018) 203000 (2017) 399000 213000 228000 409000 565000 635000
2022-09-25 04:00 -0.77 153000 682000 (2018) 203000 (2017) 399000 213000 228000 409000 565000 635000
2022-09-25 03:00 -0.89 151000 682000 (2018) 203000 (2017) 399000 213000 228000 409000 565000 635000
2022-09-25 02:00 -0.92 150000 682000 (2018) 203000 (2017) 399000 213000 228000 409000 565000 635000
2022-09-25 01:00 -1.03 149000 682000 (2018) 203000 (2017) 399000 213000 228000 409000 565000 635000
2022-09-25 00:00 -1.05 149000 682000 (2018) 203000 (2017) 399000 213000 228000 409000 565000 635000
2022-09-24 23:00 -1.10 148000 701000 (2018) 200000 (2017) 404000 208000 220000 421000 581000 653000
2022-09-24 22:00 -1.16 147000 701000 (2018) 200000 (2017) 404000 208000 220000 421000 581000 653000
2022-09-24 21:00 -1.15 147000 701000 (2018) 200000 (2017) 404000 208000 220000 421000 581000 653000
2022-09-24 20:00 -1.12 148000 701000 (2018) 200000 (2017) 404000 208000 220000 421000 581000 653000
2022-09-24 19:00 -1.22 146000 701000 (2018) 200000 (2017) 404000 208000 220000 421000 581000 653000
2022-09-24 18:00 -1.15 147000 701000 (2018) 200000 (2017) 404000 208000 220000 421000 581000 653000
2022-09-24 17:00 -1.24 146000 701000 (2018) 200000 (2017) 404000 208000 220000 421000 581000 653000
2022-09-24 16:00 -1.27 146000 701000 (2018) 200000 (2017) 404000 208000 220000 421000 581000 653000
2022-09-24 15:00 -1.24 146000 701000 (2018) 200000 (2017) 404000 208000 220000 421000 581000 653000
2022-09-24 14:00 -1.24 146000 701000 (2018) 200000 (2017) 404000 208000 220000 421000 581000 653000
2022-09-24 13:00 -1.29 145000 701000 (2018) 200000 (2017) 404000 208000 220000 421000 581000 653000
2022-09-24 12:00 -1.36 144000 701000 (2018) 200000 (2017) 404000 208000 220000 421000 581000 653000
2022-09-24 11:00 -1.38 144000 701000 (2018) 200000 (2017) 404000 208000 220000 421000 581000 653000
2022-09-24 10:00 -1.35 145000 701000 (2018) 200000 (2017) 404000 208000 220000 421000 581000 653000
2022-09-24 09:00 -1.37 144000 701000 (2018) 200000 (2017) 404000 208000 220000 421000 581000 653000
2022-09-24 08:00 -1.30 145000 701000 (2018) 200000 (2017) 404000 208000 220000 421000 581000 653000
2022-09-24 07:00 -1.33 145000 701000 (2018) 200000 (2017) 404000 208000 220000 421000 581000 653000
2022-09-24 06:00 -1.29 145000 701000 (2018) 200000 (2017) 404000 208000 220000 421000 581000 653000
2022-09-24 05:00 -1.22 146000 701000 (2018) 200000 (2017) 404000 208000 220000 421000 581000 653000
2022-09-24 04:00 -1.17 147000 701000 (2018) 200000 (2017) 404000 208000 220000 421000 581000 653000
2022-09-24 03:00 -1.15 147000 701000 (2018) 200000 (2017) 404000 208000 220000 421000 581000 653000
2022-09-24 02:00 -1.09 148000 701000 (2018) 200000 (2017) 404000 208000 220000 421000 581000 653000
2022-09-24 01:00 -1.01 149000 701000 (2018) 200000 (2017) 404000 208000 220000 421000 581000 653000
2022-09-24 00:00 -0.94 150000 701000 (2018) 200000 (2017) 404000 208000 220000 421000 581000 653000
2022-09-23 23:00 -0.88 151000 721000 (2018) 198000 (2017) 411000 211000 230000 411000 593000 670000
2022-09-23 22:00 -0.79 152000 721000 (2018) 198000 (2017) 411000 211000 230000 411000 593000 670000
2022-09-23 21:00 -0.70 154000 721000 (2018) 198000 (2017) 411000 211000 230000 411000 593000 670000
2022-09-23 20:00 -0.64 154000 721000 (2018) 198000 (2017) 411000 211000 230000 411000 593000 670000
2022-09-23 19:00 -0.52 156000 721000 (2018) 198000 (2017) 411000 211000 230000 411000 593000 670000
2022-09-23 18:00 -0.42 157000 721000 (2018) 198000 (2017) 411000 211000 230000 411000 593000 670000
2022-09-23 17:00 -0.44 157000 721000 (2018) 198000 (2017) 411000 211000 230000 411000 593000 670000
2022-09-23 16:00 -0.33 159000 721000 (2018) 198000 (2017) 411000 211000 230000 411000 593000 670000
2022-09-23 15:00 -0.29 159000 721000 (2018) 198000 (2017) 411000 211000 230000 411000 593000 670000
2022-09-23 14:00 -0.12 162000 721000 (2018) 198000 (2017) 411000 211000 230000 411000 593000 670000
2022-09-23 13:00 -0.16 161000 721000 (2018) 198000 (2017) 411000 211000 230000 411000 593000 670000
2022-09-23 12:00 -0.09 162000 721000 (2018) 198000 (2017) 411000 211000 230000 411000 593000 670000
2022-09-23 11:00 -0.04 163000 721000 (2018) 198000 (2017) 411000 211000 230000 411000 593000 670000
2022-09-23 10:00 0.03 164000 721000 (2018) 198000 (2017) 411000 211000 230000 411000 593000 670000
2022-09-23 09:00 0.08 165000 721000 (2018) 198000 (2017) 411000 211000 230000 411000 593000 670000
2022-09-23 08:00 0.18 166000 721000 (2018) 198000 (2017) 411000 211000 230000 411000 593000 670000
2022-09-23 07:00 0.23 167000 721000 (2018) 198000 (2017) 411000 211000 230000 411000 593000 670000
2022-09-23 06:00 0.27 167000 721000 (2018) 198000 (2017) 411000 211000 230000 411000 593000 670000
2022-09-23 05:00 0.31 168000 721000 (2018) 198000 (2017) 411000 211000 230000 411000 593000 670000
2022-09-23 04:00 0.34 168000 721000 (2018) 198000 (2017) 411000 211000 230000 411000 593000 670000
2022-09-23 03:00 0.35 169000 721000 (2018) 198000 (2017) 411000 211000 230000 411000 593000 670000
2022-09-23 02:00 0.37 169000 721000 (2018) 198000 (2017) 411000 211000 230000 411000 593000 670000
2022-09-23 01:00 0.38 169000 721000 (2018) 198000 (2017) 411000 211000 230000 411000 593000 670000
2022-09-23 00:00 0.41 169000 721000 (2018) 198000 (2017) 411000 211000 230000 411000 593000 670000
2022-09-22 23:00 0.45 170000 747000 (2018) 214000 (2017) 427000 230000 254000 408000 611000 692000
2022-09-22 22:00 0.53 171000 747000 (2018) 214000 (2017) 427000 230000 254000 408000 611000 692000
2022-09-22 21:00 0.59 172000 747000 (2018) 214000 (2017) 427000 230000 254000 408000 611000 692000
2022-09-22 20:00 0.62 173000 747000 (2018) 214000 (2017) 427000 230000 254000 408000 611000 692000
2022-09-22 19:00 0.61 172000 747000 (2018) 214000 (2017) 427000 230000 254000 408000 611000 692000
2022-09-22 18:00 0.61 172000 747000 (2018) 214000 (2017) 427000 230000 254000 408000 611000 692000
2022-09-22 17:00 0.63 173000 747000 (2018) 214000 (2017) 427000 230000 254000 408000 611000 692000
2022-09-22 16:00 0.56 172000 747000 (2018) 214000 (2017) 427000 230000 254000 408000 611000 692000
2022-09-22 15:00 0.52 171000 747000 (2018) 214000 (2017) 427000 230000 254000 408000 611000 692000
2022-09-22 14:00 0.46 170000 747000 (2018) 214000 (2017) 427000 230000 254000 408000 611000 692000
2022-09-22 13:00 0.37 169000 747000 (2018) 214000 (2017) 427000 230000 254000 408000 611000 692000
2022-09-22 12:00 0.41 169000 747000 (2018) 214000 (2017) 427000 230000 254000 408000 611000 692000
2022-09-22 11:00 0.27 167000 747000 (2018) 214000 (2017) 427000 230000 254000 408000 611000 692000
2022-09-22 10:00 0.26 167000 747000 (2018) 214000 (2017) 427000 230000 254000 408000 611000 692000
2022-09-22 09:00 0.12 165000 747000 (2018) 214000 (2017) 427000 230000 254000 408000 611000 692000
2022-09-22 08:00 0.05 164000 747000 (2018) 214000 (2017) 427000 230000 254000 408000 611000 692000
2022-09-22 07:00 0.08 165000 747000 (2018) 214000 (2017) 427000 230000 254000 408000 611000 692000
2022-09-22 06:00 163000 747000 (2018) 214000 (2017) 427000 230000 254000 408000 611000 692000
2022-09-22 05:00 -0.05 163000 747000 (2018) 214000 (2017) 427000 230000 254000 408000 611000 692000
2022-09-22 04:00 -0.10 162000 747000 (2018) 214000 (2017) 427000 230000 254000 408000 611000 692000
2022-09-22 03:00 -0.14 161000 747000 (2018) 214000 (2017) 427000 230000 254000 408000 611000 692000
2022-09-22 02:00 -0.22 160000 747000 (2018) 214000 (2017) 427000 230000 254000 408000 611000 692000
2022-09-22 01:00 -0.20 161000 747000 (2018) 214000 (2017) 427000 230000 254000 408000 611000 692000
2022-09-22 00:00 -0.21 160000 747000 (2018) 214000 (2017) 427000 230000 254000 408000 611000 692000
2022-09-21 23:00 -0.23 160000 794000 (2018) 216000 (2017) 444000 235000 264000 413000 639000 732000
2022-09-21 22:00 -0.18 161000 794000 (2018) 216000 (2017) 444000 235000 264000 413000 639000 732000
2022-09-21 21:00 -0.15 161000 794000 (2018) 216000 (2017) 444000 235000 264000 413000 639000 732000
2022-09-21 20:00 -0.15 161000 794000 (2018) 216000 (2017) 444000 235000 264000 413000 639000 732000
2022-09-21 19:00 -0.09 162000 794000 (2018) 216000 (2017) 444000 235000 264000 413000 639000 732000
2022-09-21 18:00 -0.08 162000 794000 (2018) 216000 (2017) 444000 235000 264000 413000 639000 732000
2022-09-21 17:00 -0.09 162000 794000 (2018) 216000 (2017) 444000 235000 264000 413000 639000 732000
2022-09-21 16:00 -0.07 162000 794000 (2018) 216000 (2017) 444000 235000 264000 413000 639000 732000
2022-09-21 15:00 0.03 164000 794000 (2018) 216000 (2017) 444000 235000 264000 413000 639000 732000
2022-09-21 14:00 0.09 165000 794000 (2018) 216000 (2017) 444000 235000 264000 413000 639000 732000
2022-09-21 13:00 0.08 165000 794000 (2018) 216000 (2017) 444000 235000 264000 413000 639000 732000
2022-09-21 12:00 0.13 165000 794000 (2018) 216000 (2017) 444000 235000 264000 413000 639000 732000
2022-09-21 11:00 0.16 166000 794000 (2018) 216000 (2017) 444000 235000 264000 413000 639000 732000
2022-09-21 10:00 0.11 165000 794000 (2018) 216000 (2017) 444000 235000 264000 413000 639000 732000
2022-09-21 09:00 0.11 165000 794000 (2018) 216000 (2017) 444000 235000 264000 413000 639000 732000
2022-09-21 08:00 0.14 166000 794000 (2018) 216000 (2017) 444000 235000 264000 413000 639000 732000
2022-09-21 07:00 0.19 166000 794000 (2018) 216000 (2017) 444000 235000 264000 413000 639000 732000
2022-09-21 06:00 0.15 166000 794000 (2018) 216000 (2017) 444000 235000 264000 413000 639000 732000
2022-09-21 05:00 0.14 166000 794000 (2018) 216000 (2017) 444000 235000 264000 413000 639000 732000
2022-09-21 04:00 0.15 166000 794000 (2018) 216000 (2017) 444000 235000 264000 413000 639000 732000
2022-09-21 03:00 0.10 165000 794000 (2018) 216000 (2017) 444000 235000 264000 413000 639000 732000
2022-09-21 02:00 0.08 165000 794000 (2018) 216000 (2017) 444000 235000 264000 413000 639000 732000
2022-09-21 01:00 0.08 165000 794000 (2018) 216000 (2017) 444000 235000 264000 413000 639000 732000
2022-09-21 00:00 0.08 165000 794000 (2018) 216000 (2017) 444000 235000 264000 413000 639000 732000
2022-09-20 23:00 0.08 165000 853000 (2018) 213000 (2017) 453000 234000 266000 398000 667000 779000
2022-09-20 22:00 0.08 165000 853000 (2018) 213000 (2017) 453000 234000 266000 398000 667000 779000
2022-09-20 21:00 0.09 165000 853000 (2018) 213000 (2017) 453000 234000 266000 398000 667000 779000
2022-09-20 20:00 0.12 165000 853000 (2018) 213000 (2017) 453000 234000 266000 398000 667000 779000
2022-09-20 19:00 0.11 165000 853000 (2018) 213000 (2017) 453000 234000 266000 398000 667000 779000
2022-09-20 18:00 0.16 166000 853000 (2018) 213000 (2017) 453000 234000 266000 398000 667000 779000
2022-09-20 17:00 0.20 166000 853000 (2018) 213000 (2017) 453000 234000 266000 398000 667000 779000
2022-09-20 16:00 0.23 167000 853000 (2018) 213000 (2017) 453000 234000 266000 398000 667000 779000
2022-09-20 15:00 0.19 166000 853000 (2018) 213000 (2017) 453000 234000 266000 398000 667000 779000
2022-09-20 14:00 0.28 168000 853000 (2018) 213000 (2017) 453000 234000 266000 398000 667000 779000
2022-09-20 13:00 0.25 167000 853000 (2018) 213000 (2017) 453000 234000 266000 398000 667000 779000
2022-09-20 12:00 0.25 167000 853000 (2018) 213000 (2017) 453000 234000 266000 398000 667000 779000
2022-09-20 11:00 0.32 168000 853000 (2018) 213000 (2017) 453000 234000 266000 398000 667000 779000
2022-09-20 10:00 0.31 168000 853000 (2018) 213000 (2017) 453000 234000 266000 398000 667000 779000
2022-09-20 09:00 0.26 167000 853000 (2018) 213000 (2017) 453000 234000 266000 398000 667000 779000
2022-09-20 08:00 0.33 168000 853000 (2018) 213000 (2017) 453000 234000 266000 398000 667000 779000
2022-09-20 07:00 0.33 168000 853000 (2018) 213000 (2017) 453000 234000 266000 398000 667000 779000
2022-09-20 06:00 0.31 168000 853000 (2018) 213000 (2017) 453000 234000 266000 398000 667000 779000
2022-09-20 05:00 0.28 168000 853000 (2018) 213000 (2017) 453000 234000 266000 398000 667000 779000
2022-09-20 04:00 0.20 166000 853000 (2018) 213000 (2017) 453000 234000 266000 398000 667000 779000
2022-09-20 03:00 0.16 166000 853000 (2018) 213000 (2017) 453000 234000 266000 398000 667000 779000
2022-09-20 02:00 0.19 166000 853000 (2018) 213000 (2017) 453000 234000 266000 398000 667000 779000
2022-09-20 01:00 0.16 166000 853000 (2018) 213000 (2017) 453000 234000 266000 398000 667000 779000
2022-09-20 00:00 0.17 166000 853000 (2018) 213000 (2017) 453000 234000 266000 398000 667000 779000
2022-09-19 23:00 0.14 166000 879000 (2018) 205000 (2017) 454000 233000 274000 398000 663000 793000
2022-09-19 22:00 0.10 165000 879000 (2018) 205000 (2017) 454000 233000 274000 398000 663000 793000
2022-09-19 21:00 0.18 166000 879000 (2018) 205000 (2017) 454000 233000 274000 398000 663000 793000
2022-09-19 20:00 0.17 166000 879000 (2018) 205000 (2017) 454000 233000 274000 398000 663000 793000
2022-09-19 19:00 0.22 167000 879000 (2018) 205000 (2017) 454000 233000 274000 398000 663000 793000
2022-09-19 18:00 0.17 166000 879000 (2018) 205000 (2017) 454000 233000 274000 398000 663000 793000
2022-09-19 17:00 0.26 167000 879000 (2018) 205000 (2017) 454000 233000 274000 398000 663000 793000
2022-09-19 16:00 0.31 168000 879000 (2018) 205000 (2017) 454000 233000 274000 398000 663000 793000
2022-09-19 15:00 0.34 168000 879000 (2018) 205000 (2017) 454000 233000 274000 398000 663000 793000
2022-09-19 14:00 0.39 169000 879000 (2018) 205000 (2017) 454000 233000 274000 398000 663000 793000
2022-09-19 13:00 0.48 171000 879000 (2018) 205000 (2017) 454000 233000 274000 398000 663000 793000
2022-09-19 12:00 0.43 170000 879000 (2018) 205000 (2017) 454000 233000 274000 398000 663000 793000
2022-09-19 11:00 0.50 171000 879000 (2018) 205000 (2017) 454000 233000 274000 398000 663000 793000
2022-09-19 10:00 0.54 171000 879000 (2018) 205000 (2017) 454000 233000 274000 398000 663000 793000
2022-09-19 09:00 0.56 172000 879000 (2018) 205000 (2017) 454000 233000 274000 398000 663000 793000
2022-09-19 08:00 0.58 172000 879000 (2018) 205000 (2017) 454000 233000 274000 398000 663000 793000
2022-09-19 07:00 0.62 173000 879000 (2018) 205000 (2017) 454000 233000 274000 398000 663000 793000
2022-09-19 06:00 0.69 174000 879000 (2018) 205000 (2017) 454000 233000 274000 398000 663000 793000
2022-09-19 05:00 0.71 174000 879000 (2018) 205000 (2017) 454000 233000 274000 398000 663000 793000
2022-09-19 04:00 0.73 174000 879000 (2018) 205000 (2017) 454000 233000 274000 398000 663000 793000
2022-09-19 03:00 0.78 175000 879000 (2018) 205000 (2017) 454000 233000 274000 398000 663000 793000
2022-09-19 02:00 0.84 176000 879000 (2018) 205000 (2017) 454000 233000 274000 398000 663000 793000
2022-09-19 01:00 0.96 178000 879000 (2018) 205000 (2017) 454000 233000 274000 398000 663000 793000
2022-09-19 00:00 1.01 178000 879000 (2018) 205000 (2017) 454000 233000 274000 398000 663000 793000
2022-09-18 23:00 1.07 179000 885000 (2018) 203000 (2017) 453000 238000 289000 385000 650000 791000
2022-09-18 22:00 1.12 180000 885000 (2018) 203000 (2017) 453000 238000 289000 385000 650000 791000
2022-09-18 21:00 1.14 180000 885000 (2018) 203000 (2017) 453000 238000 289000 385000 650000 791000
2022-09-18 20:00 1.18 181000 885000 (2018) 203000 (2017) 453000 238000 289000 385000 650000 791000
2022-09-18 19:00 1.24 182000 885000 (2018) 203000 (2017) 453000 238000 289000 385000 650000 791000
2022-09-18 18:00 1.27 182000 885000 (2018) 203000 (2017) 453000 238000 289000 385000 650000 791000
2022-09-18 17:00 1.24 182000 885000 (2018) 203000 (2017) 453000 238000 289000 385000 650000 791000
2022-09-18 16:00 1.26 182000 885000 (2018) 203000 (2017) 453000 238000 289000 385000 650000 791000
2022-09-18 15:00 1.30 183000 885000 (2018) 203000 (2017) 453000 238000 289000 385000 650000 791000
2022-09-18 14:00 1.35 183000 885000 (2018) 203000 (2017) 453000 238000 289000 385000 650000 791000
2022-09-18 13:00 1.36 184000 885000 (2018) 203000 (2017) 453000 238000 289000 385000 650000 791000
2022-09-18 12:00 1.34 183000 885000 (2018) 203000 (2017) 453000 238000 289000 385000 650000 791000
2022-09-18 11:00 1.31 183000 885000 (2018) 203000 (2017) 453000 238000 289000 385000 650000 791000
2022-09-18 10:00 1.36 184000 885000 (2018) 203000 (2017) 453000 238000 289000 385000 650000 791000
2022-09-18 09:00 1.38 184000 885000 (2018) 203000 (2017) 453000 238000 289000 385000 650000 791000
2022-09-18 08:00 1.35 183000 885000 (2018) 203000 (2017) 453000 238000 289000 385000 650000 791000
2022-09-18 07:00 1.38 184000 885000 (2018) 203000 (2017) 453000 238000 289000 385000 650000 791000
2022-09-18 06:00 1.36 184000 885000 (2018) 203000 (2017) 453000 238000 289000 385000 650000 791000
2022-09-18 05:00 1.38 184000 885000 (2018) 203000 (2017) 453000 238000 289000 385000 650000 791000
2022-09-18 04:00 1.38 184000 885000 (2018) 203000 (2017) 453000 238000 289000 385000 650000 791000
2022-09-18 03:00 1.36 184000 885000 (2018) 203000 (2017) 453000 238000 289000 385000 650000 791000
2022-09-18 02:00 1.38 184000 885000 (2018) 203000 (2017) 453000 238000 289000 385000 650000 791000
2022-09-18 01:00 1.38 184000 885000 (2018) 203000 (2017) 453000 238000 289000 385000 650000 791000
2022-09-18 00:00 1.41 184000 885000 (2018) 203000 (2017) 453000 238000 289000 385000 650000 791000

A total of 191 rows are displayed for years 2016 through 2020.